Time;durP1;ratioP1;P1;durP2;ratioP2;P2;SDS_P1;SDS_P2;PMS_P1;PMS_P2;Temp;Humidity;BMP_temperature;BMP_pressure;BME280_temperature;BME280_humidity;BME280_pressure;Samples;Min_cycle;Max_cycle;Signal;HPM_P1;HPM_P2
2023/11/07 00:02:14;;;;;;;9.40;3.47;;;;;;;;;;5050604;28;20300;-67
2023/11/07 00:04:41;;;;;;;10.33;4.50;;;;;;;;;;5030718;28;20192;-67
2023/11/07 00:07:07;;;;;;;7.27;3.30;;;;;;;;;;5047183;28;20683;-67
2023/11/07 00:09:32;;;;;;;8.57;3.67;;;;;;;;;;5049129;28;20202;-67
2023/11/07 00:11:59;;;;;;;6.97;3.53;;;;;;;;;;5050729;28;20196;-68
2023/11/07 00:14:24;;;;;;;6.03;3.43;;;;;;;;;;5050985;28;20210;-67
2023/11/07 00:16:50;;;;;;;6.37;3.63;;;;;;;;;;5052843;28;20177;-67
2023/11/07 00:19:15;;;;;;;6.73;3.53;;;;;;;;;;5037452;28;20239;-67
2023/11/07 00:21:40;;;;;;;7.37;3.50;;;;;;;;;;5049426;28;20239;-68
2023/11/07 00:24:06;;;;;;;9.97;3.43;;;;;;;;;;5042742;28;20547;-67
2023/11/07 00:26:31;;;;;;;10.23;3.73;;;;;;;;;;5049145;28;20180;-67
2023/11/07 00:28:56;;;;;;;7.63;3.10;;;;;;;;;;5043787;28;20212;-67
2023/11/07 00:31:21;;;;;;;5.73;3.30;;;;;;;;;;5043839;28;20202;-68
2023/11/07 00:33:48;;;;;;;9.50;4.07;;;;;;;;;;5050333;28;20238;-67
2023/11/07 00:36:13;;;;;;;13.13;3.37;;;;;;;;;;5049175;28;20183;-68
2023/11/07 00:38:38;;;;;;;7.47;3.23;;;;;;;;;;5038661;28;20185;-67
2023/11/07 00:41:03;;;;;;;6.77;3.00;;;;;;;;;;5045386;28;20794;-68
2023/11/07 00:43:29;;;;;;;8.60;3.50;;;;;;;;;;5031094;28;20231;-68
2023/11/07 00:45:54;;;;;;;6.47;3.33;;;;;;;;;;5033619;28;20645;-67
2023/11/07 00:48:19;;;;;;;10.70;3.63;;;;;;;;;;5033092;28;20205;-68
2023/11/07 00:50:44;;;;;;;9.70;3.43;;;;;;;;;;5030315;28;20614;-67
2023/11/07 00:53:10;;;;;;;7.67;3.83;;;;;;;;;;5035664;28;22288;-70
2023/11/07 00:55:35;;;;;;;9.53;2.93;;;;;;;;;;5032810;28;20700;-67
2023/11/07 00:58:00;;;;;;;12.33;2.90;;;;;;;;;;5042587;28;20648;-67
2023/11/07 01:00:25;;;;;;;4.57;2.67;;;;;;;;;;5045675;28;20198;-67
2023/11/07 01:02:50;;;;;;;7.17;3.13;;;;;;;;;;5050178;28;20178;-68
2023/11/07 01:05:16;;;;;;;11.90;3.17;;;;;;;;;;5046901;28;20239;-67
2023/11/07 01:07:41;;;;;;;11.03;3.17;;;;;;;;;;5049583;28;20185;-67
2023/11/07 01:10:07;;;;;;;5.97;3.07;;;;;;;;;;5052493;28;20173;-68
2023/11/07 01:12:32;;;;;;;5.87;2.90;;;;;;;;;;5049638;28;20548;-67
2023/11/07 01:14:57;;;;;;;6.67;2.77;;;;;;;;;;5049394;28;20169;-68
2023/11/07 01:17:23;;;;;;;8.70;2.80;;;;;;;;;;5040476;28;20178;-67
2023/11/07 01:19:48;;;;;;;7.27;3.10;;;;;;;;;;5053246;28;20185;-67
2023/11/07 01:22:14;;;;;;;9.57;2.73;;;;;;;;;;5053557;28;20734;-67
2023/11/07 01:24:39;;;;;;;7.73;3.37;;;;;;;;;;5052628;28;20272;-67
2023/11/07 01:27:04;;;;;;;9.47;2.73;;;;;;;;;;5054470;28;20601;-67
2023/11/07 01:29:29;;;;;;;7.47;2.70;;;;;;;;;;5050024;28;20209;-67
2023/11/07 01:31:55;;;;;;;5.03;2.70;;;;;;;;;;5050935;28;20246;-67
2023/11/07 01:34:20;;;;;;;7.80;3.43;;;;;;;;;;5053375;28;20170;-67
2023/11/07 01:36:45;;;;;;;10.70;2.67;;;;;;;;;;5052910;28;20174;-67
2023/11/07 01:39:10;;;;;;;7.93;3.03;;;;;;;;;;5052336;28;20576;-67
2023/11/07 01:41:36;;;;;;;14.53;3.80;;;;;;;;;;5052751;28;20212;-67
2023/11/07 01:44:01;;;;;;;5.60;2.50;;;;;;;;;;5053622;28;20174;-67
2023/11/07 01:46:26;;;;;;;9.73;2.63;;;;;;;;;;5051218;28;20169;-67
2023/11/07 01:48:52;;;;;;;3.73;2.53;;;;;;;;;;5052849;28;20190;-67
2023/11/07 01:51:18;;;;;;;8.47;2.80;;;;;;;;;;5052636;28;20209;-68
2023/11/07 01:53:44;;;;;;;7.77;2.53;;;;;;;;;;5053158;28;20174;-67
2023/11/07 01:56:09;;;;;;;11.63;2.90;;;;;;;;;;5053246;28;20184;-67
2023/11/07 01:58:35;;;;;;;7.33;3.27;;;;;;;;;;5050474;28;20222;-67
2023/11/07 02:01:00;;;;;;;4.77;2.70;;;;;;;;;;5034935;28;20213;-66
2023/11/07 02:03:26;;;;;;;8.60;3.77;;;;;;;;;;5052771;28;20197;-65
2023/11/07 02:05:51;;;;;;;8.57;2.93;;;;;;;;;;5054149;28;20645;-67
2023/11/07 02:08:17;;;;;;;7.90;2.63;;;;;;;;;;5048691;28;20233;-66
2023/11/07 02:10:43;;;;;;;6.53;2.67;;;;;;;;;;5052722;28;20190;-66
2023/11/07 02:13:08;;;;;;;5.60;2.67;;;;;;;;;;5052357;28;20189;-65
2023/11/07 02:15:35;;;;;;;4.20;2.40;;;;;;;;;;5051762;28;20184;-67
2023/11/07 02:18:01;;;;;;;7.93;2.30;;;;;;;;;;5034714;28;20181;-67
2023/11/07 02:20:26;;;;;;;5.13;1.97;;;;;;;;;;5051567;28;20205;-67
2023/11/07 02:23:06;;;;;;;6.73;2.73;;;;;;;;;;5051830;28;20278;-66
2023/11/07 02:25:32;;;;;;;7.67;3.03;;;;;;;;;;5053082;28;20654;-66
2023/11/07 02:27:57;;;;;;;3.93;2.80;;;;;;;;;;5049592;28;20213;-65
2023/11/07 02:30:22;;;;;;;13.70;3.60;;;;;;;;;;5049361;28;20190;-66
2023/11/07 02:32:48;;;;;;;12.10;3.13;;;;;;;;;;5050471;28;20236;-66
2023/11/07 02:35:13;;;;;;;5.87;2.53;;;;;;;;;;5052346;28;20256;-66
2023/11/07 02:37:39;;;;;;;8.90;2.70;;;;;;;;;;5050142;28;20177;-66
2023/11/07 02:40:06;;;;;;;9.90;3.87;;;;;;;;;;5052132;28;20699;-66
2023/11/07 02:42:31;;;;;;;11.63;3.17;;;;;;;;;;5051555;28;20209;-66
2023/11/07 02:44:57;;;;;;;9.47;3.10;;;;;;;;;;5053213;28;20204;-66
2023/11/07 02:47:22;;;;;;;5.13;2.77;;;;;;;;;;5050646;28;20695;-65
2023/11/07 02:49:47;;;;;;;3.40;2.60;;;;;;;;;;5050802;28;20582;-66
2023/11/07 02:52:13;;;;;;;6.30;2.90;;;;;;;;;;5050100;28;20189;-65
2023/11/07 02:54:38;;;;;;;3.23;2.43;;;;;;;;;;5050940;28;20192;-66
2023/11/07 02:57:04;;;;;;;5.17;3.00;;;;;;;;;;5051307;28;20173;-66
2023/11/07 02:59:30;;;;;;;6.77;2.77;;;;;;;;;;5043444;28;20259;-66
2023/11/07 03:01:55;;;;;;;8.23;3.67;;;;;;;;;;5050482;28;20250;-65
2023/11/07 03:04:20;;;;;;;9.80;3.40;;;;;;;;;;5050099;28;20312;-67
2023/11/07 03:06:46;;;;;;;7.40;3.03;;;;;;;;;;5051117;28;20181;-66
2023/11/07 03:09:11;;;;;;;6.90;2.70;;;;;;;;;;5047369;28;20664;-66
2023/11/07 03:11:36;;;;;;;5.43;2.77;;;;;;;;;;5050809;28;20288;-66
2023/11/07 03:14:01;;;;;;;7.70;2.80;;;;;;;;;;5050621;28;20170;-66
2023/11/07 03:16:26;;;;;;;6.87;2.77;;;;;;;;;;5047320;28;20184;-66
2023/11/07 03:18:52;;;;;;;7.83;3.53;;;;;;;;;;5051008;28;20189;-67
2023/11/07 03:21:18;;;;;;;7.73;2.90;;;;;;;;;;5050221;28;20224;-66
2023/11/07 03:23:43;;;;;;;9.63;2.90;;;;;;;;;;5048236;28;20181;-66
2023/11/07 03:26:08;;;;;;;8.43;3.00;;;;;;;;;;5050550;28;20180;-66
2023/11/07 03:28:34;;;;;;;5.10;3.13;;;;;;;;;;5050123;28;20232;-67
2023/11/07 03:30:59;;;;;;;4.20;2.90;;;;;;;;;;5050657;28;20197;-66
2023/11/07 03:33:25;;;;;;;5.63;3.13;;;;;;;;;;5050933;28;20162;-66
2023/11/07 03:35:50;;;;;;;9.17;3.27;;;;;;;;;;5051413;28;20661;-66
2023/11/07 03:38:15;;;;;;;15.40;2.97;;;;;;;;;;5049760;28;20201;-66
2023/11/07 03:40:41;;;;;;;5.37;3.30;;;;;;;;;;5048723;28;20193;-67
2023/11/07 03:43:06;;;;;;;5.37;2.77;;;;;;;;;;5047917;28;20597;-67
2023/11/07 03:45:31;;;;;;;4.73;2.77;;;;;;;;;;5049185;28;20173;-66
2023/11/07 03:47:56;;;;;;;6.47;3.10;;;;;;;;;;5049829;28;20640;-66
2023/11/07 03:50:25;;;;;;;4.63;3.10;;;;;;;;;;5049763;28;20223;-66
2023/11/07 03:52:50;;;;;;;5.63;2.53;;;;;;;;;;5044667;28;20177;-66
2023/11/07 03:55:16;;;;;;;3.27;2.97;;;;;;;;;;5050055;28;20188;-67
2023/11/07 03:57:42;;;;;;;4.90;2.30;;;;;;;;;;5030325;28;20208;-66
2023/11/07 04:00:10;;;;;;;4.37;2.53;;;;;;;;;;5045803;28;20231;-66
2023/11/07 04:02:35;;;;;;;5.07;2.20;;;;;;;;;;5032668;28;20201;-66
2023/11/07 04:05:00;;;;;;;5.40;2.27;;;;;;;;;;5050520;28;20196;-66
2023/11/07 04:07:25;;;;;;;5.30;2.37;;;;;;;;;;5048834;28;20185;-67
2023/11/07 04:09:51;;;;;;;6.20;2.60;;;;;;;;;;5050668;28;20676;-67
2023/11/07 04:12:16;;;;;;;4.33;2.53;;;;;;;;;;5050334;28;20224;-67
2023/11/07 04:14:43;;;;;;;5.33;3.03;;;;;;;;;;5050574;28;20178;-67
2023/11/07 04:17:08;;;;;;;4.20;2.73;;;;;;;;;;5050568;28;20169;-66
2023/11/07 04:19:34;;;;;;;4.93;3.10;;;;;;;;;;5050496;28;20168;-66
2023/11/07 04:22:00;;;;;;;3.80;2.40;;;;;;;;;;5048271;28;20696;-66
2023/11/07 04:24:27;;;;;;;5.60;2.87;;;;;;;;;;5049503;28;20173;-66
2023/11/07 04:26:53;;;;;;;8.23;3.00;;;;;;;;;;5049310;28;20192;-67
2023/11/07 04:29:19;;;;;;;6.43;2.83;;;;;;;;;;5049413;28;20579;-66
2023/11/07 04:31:44;;;;;;;4.47;3.00;;;;;;;;;;5049176;28;20242;-66
2023/11/07 04:34:09;;;;;;;4.70;2.77;;;;;;;;;;5049918;28;20173;-66
2023/11/07 04:36:38;;;;;;;8.77;3.57;;;;;;;;;;5049398;28;20546;-67
2023/11/07 04:39:04;;;;;;;7.30;2.97;;;;;;;;;;5047137;28;20714;-66
2023/11/07 04:41:29;;;;;;;4.57;3.13;;;;;;;;;;5048951;28;20198;-66
2023/11/07 04:43:54;;;;;;;8.20;3.43;;;;;;;;;;5048132;28;20181;-66
2023/11/07 04:46:20;;;;;;;4.47;3.27;;;;;;;;;;5049279;28;20190;-66
2023/11/07 04:48:45;;;;;;;8.33;3.57;;;;;;;;;;5047594;28;20208;-66
2023/11/07 04:51:11;;;;;;;4.77;3.23;;;;;;;;;;5047785;28;20532;-66
2023/11/07 04:53:37;;;;;;;6.70;3.03;;;;;;;;;;5050078;28;20268;-66
2023/11/07 04:56:03;;;;;;;4.57;3.10;;;;;;;;;;5054234;28;20185;-66
2023/11/07 04:58:28;;;;;;;5.10;3.10;;;;;;;;;;5055910;28;20197;-66
2023/11/07 05:00:53;;;;;;;5.83;3.47;;;;;;;;;;5053131;28;20217;-66
2023/11/07 05:03:19;;;;;;;7.77;3.60;;;;;;;;;;5047493;28;20196;-66
2023/11/07 05:05:44;;;;;;;14.77;4.57;;;;;;;;;;5053445;28;20185;-67
2023/11/07 05:08:10;;;;;;;7.67;3.50;;;;;;;;;;5051609;28;20680;-67
2023/11/07 05:10:35;;;;;;;13.47;4.10;;;;;;;;;;5053631;28;20576;-66
2023/11/07 05:13:00;;;;;;;11.10;4.00;;;;;;;;;;5049592;28;20220;-67
2023/11/07 05:15:25;;;;;;;5.97;3.67;;;;;;;;;;5052680;28;20182;-67
2023/11/07 05:17:51;;;;;;;13.10;4.30;;;;;;;;;;5046951;28;20185;-67
2023/11/07 05:20:16;;;;;;;6.43;3.63;;;;;;;;;;5051361;28;20169;-67
2023/11/07 05:22:42;;;;;;;12.43;4.93;;;;;;;;;;5052789;28;20189;-67
2023/11/07 05:25:07;;;;;;;7.83;4.90;;;;;;;;;;5053630;28;20162;-67
2023/11/07 05:27:32;;;;;;;8.73;4.60;;;;;;;;;;5051075;28;20178;-67
2023/11/07 05:29:58;;;;;;;9.40;4.10;;;;;;;;;;5050478;28;20210;-67
2023/11/07 05:32:23;;;;;;;11.43;4.57;;;;;;;;;;5035491;28;20292;-66
2023/11/07 05:34:48;;;;;;;9.07;3.83;;;;;;;;;;5053326;28;20186;-67
2023/11/07 05:37:15;;;;;;;9.97;4.80;;;;;;;;;;5043646;28;20575;-67
2023/11/07 05:39:43;;;;;;;11.97;4.30;;;;;;;;;;5051802;28;20255;-66
2023/11/07 05:42:08;;;;;;;11.33;4.73;;;;;;;;;;5050243;28;20301;-67
2023/11/07 05:44:34;;;;;;;9.47;5.17;;;;;;;;;;5052133;28;20653;-67
2023/11/07 05:46:59;;;;;;;11.43;4.73;;;;;;;;;;5051448;28;20633;-67
2023/11/07 05:49:24;;;;;;;6.37;5.27;;;;;;;;;;5051751;28;20633;-67
2023/11/07 05:51:50;;;;;;;10.10;4.83;;;;;;;;;;5051668;28;20260;-67
2023/11/07 05:54:16;;;;;;;9.90;4.97;;;;;;;;;;5053370;28;20205;-67
2023/11/07 05:56:41;;;;;;;9.43;4.90;;;;;;;;;;5043698;28;20203;-66
2023/11/07 05:59:07;;;;;;;7.20;4.83;;;;;;;;;;5049179;28;20657;-66
2023/11/07 06:01:33;;;;;;;8.23;5.10;;;;;;;;;;5034404;28;20216;-67
2023/11/07 06:03:58;;;;;;;8.83;5.70;;;;;;;;;;5049276;28;20182;-66
2023/11/07 06:06:24;;;;;;;12.87;5.37;;;;;;;;;;5043327;28;20182;-65
2023/11/07 06:08:49;;;;;;;9.80;6.10;;;;;;;;;;5051356;28;20651;-65
2023/11/07 06:11:15;;;;;;;11.33;5.50;;;;;;;;;;5050690;28;20243;-66
2023/11/07 06:13:40;;;;;;;11.00;6.57;;;;;;;;;;5053260;28;20243;-66
2023/11/07 06:16:06;;;;;;;9.27;5.37;;;;;;;;;;5045022;28;20182;-66
2023/11/07 06:18:32;;;;;;;10.10;6.40;;;;;;;;;;5049585;28;20218;-66
2023/11/07 06:20:57;;;;;;;12.17;5.87;;;;;;;;;;5050717;28;20220;-67
2023/11/07 06:23:23;;;;;;;9.90;5.40;;;;;;;;;;5051820;28;20589;-65
2023/11/07 06:25:49;;;;;;;8.43;6.00;;;;;;;;;;5046373;28;20193;-66
2023/11/07 06:28:14;;;;;;;12.33;5.43;;;;;;;;;;5033839;28;20236;-66
2023/11/07 06:30:39;;;;;;;11.47;6.03;;;;;;;;;;5052158;28;20201;-67
2023/11/07 06:33:04;;;;;;;10.90;6.43;;;;;;;;;;5051839;28;20177;-67
2023/11/07 06:35:30;;;;;;;11.27;6.20;;;;;;;;;;5051790;28;20185;-66
2023/11/07 06:37:55;;;;;;;15.83;6.90;;;;;;;;;;5050579;28;20281;-67
2023/11/07 06:40:21;;;;;;;13.83;6.60;;;;;;;;;;5049089;28;20422;-67
2023/11/07 06:42:46;;;;;;;10.30;5.73;;;;;;;;;;5049073;28;20181;-66
2023/11/07 06:45:12;;;;;;;14.50;7.23;;;;;;;;;;5053675;28;20177;-67
2023/11/07 06:47:40;;;;;;;10.70;6.73;;;;;;;;;;5054595;28;20180;-67
2023/11/07 06:50:08;;;;;;;9.93;5.73;;;;;;;;;;5046962;28;20263;-66
2023/11/07 06:52:33;;;;;;;14.17;6.87;;;;;;;;;;5029420;28;20196;-65
2023/11/07 06:54:58;;;;;;;13.73;5.93;;;;;;;;;;5052238;28;20628;-65
2023/11/07 06:57:23;;;;;;;14.63;6.40;;;;;;;;;;5052036;28;20212;-66
2023/11/07 06:59:49;;;;;;;13.83;6.33;;;;;;;;;;5051515;28;20648;-66
2023/11/07 07:02:14;;;;;;;10.60;6.47;;;;;;;;;;5053527;28;20219;-66
2023/11/07 07:04:39;;;;;;;19.67;7.20;;;;;;;;;;5050214;28;20217;-67
2023/11/07 07:07:04;;;;;;;11.80;6.83;;;;;;;;;;5033495;28;20184;-67
2023/11/07 07:09:29;;;;;;;11.87;7.40;;;;;;;;;;5049538;28;20251;-66
2023/11/07 07:11:55;;;;;;;13.13;6.87;;;;;;;;;;5044596;28;20250;-67
2023/11/07 07:14:20;;;;;;;12.73;7.20;;;;;;;;;;5031501;28;20555;-67
2023/11/07 07:16:46;;;;;;;14.87;8.00;;;;;;;;;;5049421;28;20228;-66
2023/11/07 07:19:17;;;;;;;13.90;7.43;;;;;;;;;;5050770;28;20174;-66
2023/11/07 07:21:43;;;;;;;10.97;6.90;;;;;;;;;;5051011;28;20585;-67
2023/11/07 07:24:15;;;;;;;12.07;7.43;;;;;;;;;;5050294;28;20184;-67
2023/11/07 07:26:41;;;;;;;15.53;8.30;;;;;;;;;;5048392;28;20186;-65
2023/11/07 07:29:06;;;;;;;16.30;8.07;;;;;;;;;;5051177;28;20208;-67
2023/11/07 07:31:35;;;;;;;13.77;8.00;;;;;;;;;;5034120;28;20224;-67
2023/11/07 07:34:00;;;;;;;14.23;7.97;;;;;;;;;;5052555;28;20227;-66
2023/11/07 07:36:25;;;;;;;15.37;8.27;;;;;;;;;;5033989;28;20178;-67
2023/11/07 07:38:52;;;;;;;16.43;8.27;;;;;;;;;;5050935;28;20320;-66
2023/11/07 07:41:17;;;;;;;15.43;7.40;;;;;;;;;;5054008;28;20688;-67
2023/11/07 07:43:44;;;;;;;17.03;8.10;;;;;;;;;;5033108;28;20181;-66
2023/11/07 07:46:10;;;;;;;10.33;7.37;;;;;;;;;;5052203;28;20185;-67
2023/11/07 07:48:35;;;;;;;12.93;7.77;;;;;;;;;;5051595;28;20587;-67
2023/11/07 07:51:06;;;;;;;16.00;7.80;;;;;;;;;;5050512;28;20201;-67
2023/11/07 07:53:34;;;;;;;15.37;8.63;;;;;;;;;;5051040;28;20260;-67
2023/11/07 07:56:00;;;;;;;11.03;8.00;;;;;;;;;;5050512;28;20197;-67
2023/11/07 07:58:26;;;;;;;12.57;7.77;;;;;;;;;;5052907;28;20216;-67
2023/11/07 08:00:52;;;;;;;14.30;7.63;;;;;;;;;;5048755;28;20212;-67
2023/11/07 08:03:17;;;;;;;12.63;7.73;;;;;;;;;;5048320;28;20178;-67
2023/11/07 08:05:44;;;;;;;10.47;6.87;;;;;;;;;;5050960;28;20185;-67
2023/11/07 08:08:09;;;;;;;11.60;6.03;;;;;;;;;;5054215;28;20653;-68
2023/11/07 08:10:35;;;;;;;8.02;5.45;;;;;;;;;;5050705;28;20196;-67
2023/11/07 08:13:00;;;;;;;9.23;5.95;;;;;;;;;;5050912;28;20532;-67
2023/11/07 08:15:26;;;;;;;8.25;5.00;;;;;;;;;;5050861;28;20257;-68
2023/11/07 08:17:52;;;;;;;11.65;5.47;;;;;;;;;;5037692;28;20200;-67
2023/11/07 08:20:20;;;;;;;7.55;4.55;;;;;;;;;;5049662;28;20177;-66
2023/11/07 08:22:46;;;;;;;9.52;5.35;;;;;;;;;;5051101;28;20200;-67
2023/11/07 08:25:12;;;;;;;6.30;4.10;;;;;;;;;;5050483;28;20174;-66
2023/11/07 08:27:41;;;;;;;9.35;4.97;;;;;;;;;;5051724;28;20189;-67
2023/11/07 08:30:10;;;;;;;7.90;3.70;;;;;;;;;;5054883;28;20718;-67
2023/11/07 08:32:36;;;;;;;5.43;3.22;;;;;;;;;;5054485;28;20177;-67
2023/11/07 08:35:01;;;;;;;8.57;3.92;;;;;;;;;;5054640;28;20184;-67
2023/11/07 08:37:28;;;;;;;8.40;4.10;;;;;;;;;;5057023;28;20200;-67
2023/11/07 08:39:53;;;;;;;4.55;3.60;;;;;;;;;;5035414;28;20216;-67
2023/11/07 08:42:19;;;;;;;7.67;3.23;;;;;;;;;;5054589;28;20237;-67
2023/11/07 08:44:44;;;;;;;6.17;3.03;;;;;;;;;;5054221;28;20188;-66
2023/11/07 08:47:09;;;;;;;5.97;3.37;;;;;;;;;;5056620;28;20195;-66
2023/11/07 08:49:34;;;;;;;5.23;2.63;;;;;;;;;;5054353;28;20241;-66
2023/11/07 08:52:00;;;;;;;4.53;3.40;;;;;;;;;;5052344;28;20193;-66
2023/11/07 08:54:25;;;;;;;5.93;3.17;;;;;;;;;;5055093;28;20593;-66
2023/11/07 08:56:50;;;;;;;7.82;2.88;;;;;;;;;;5051597;28;20185;-67
2023/11/07 08:59:17;;;;;;;5.30;3.13;;;;;;;;;;5053991;28;20181;-67
2023/11/07 09:01:42;;;;;;;4.93;2.63;;;;;;;;;;5050612;28;20224;-67
2023/11/07 09:04:09;;;;;;;8.02;3.00;;;;;;;;;;5054448;28;20265;-66
2023/11/07 09:06:35;;;;;;;4.07;2.60;;;;;;;;;;5054139;28;20174;-66
2023/11/07 09:09:00;;;;;;;6.90;2.88;;;;;;;;;;5053885;28;20204;-67
2023/11/07 09:11:26;;;;;;;3.15;2.15;;;;;;;;;;5050162;28;20199;-66
2023/11/07 09:13:52;;;;;;;4.93;2.60;;;;;;;;;;5035654;28;20232;-66
2023/11/07 09:16:17;;;;;;;3.33;2.30;;;;;;;;;;5054861;28;20261;-67
2023/11/07 09:18:42;;;;;;;3.90;2.22;;;;;;;;;;5050739;28;20201;-66
2023/11/07 09:21:07;;;;;;;5.18;2.28;;;;;;;;;;5041161;28;20223;-67
2023/11/07 09:23:33;;;;;;;5.05;2.30;;;;;;;;;;5053253;28;20563;-66
2023/11/07 09:25:58;;;;;;;4.97;1.80;;;;;;;;;;5053371;28;20396;-67
2023/11/07 09:28:24;;;;;;;2.60;1.75;;;;;;;;;;5035981;28;20867;-67
2023/11/07 09:30:49;;;;;;;5.30;1.60;;;;;;;;;;5046950;28;20356;-67
2023/11/07 09:33:15;;;;;;;4.68;2.10;;;;;;;;;;5052520;28;20177;-66
2023/11/07 09:35:40;;;;;;;4.53;1.63;;;;;;;;;;5053870;28;20182;-67
2023/11/07 09:38:05;;;;;;;2.70;1.45;;;;;;;;;;5054352;28;20178;-65
2023/11/07 09:40:30;;;;;;;2.97;1.88;;;;;;;;;;5051302;28;20576;-67
2023/11/07 09:42:56;;;;;;;2.78;1.67;;;;;;;;;;5050340;28;20178;-66
2023/11/07 09:45:21;;;;;;;3.35;1.83;;;;;;;;;;5046994;28;20552;-67
2023/11/07 09:47:47;;;;;;;3.00;1.38;;;;;;;;;;5053152;28;20664;-67
2023/11/07 09:50:20;;;;;;;3.53;1.30;;;;;;;;;;5054485;28;20213;-66
2023/11/07 09:52:46;;;;;;;1.63;1.13;;;;;;;;;;5052597;28;20180;-66
2023/11/07 09:55:14;;;;;;;5.88;1.77;;;;;;;;;;5055598;28;20201;-67
2023/11/07 09:57:41;;;;;;;7.60;2.05;;;;;;;;;;5034785;28;20177;-65
2023/11/07 10:00:09;;;;;;;3.05;1.40;;;;;;;;;;5053101;28;20669;-66
2023/11/07 10:02:34;;;;;;;2.15;1.58;;;;;;;;;;5052355;28;20558;-65
2023/11/07 10:05:00;;;;;;;4.78;1.52;;;;;;;;;;5057090;28;20176;-66
2023/11/07 10:07:25;;;;;;;4.18;1.60;;;;;;;;;;5056026;28;20189;-66
2023/11/07 10:09:50;;;;;;;4.20;1.40;;;;;;;;;;5053163;28;20197;-66
2023/11/07 10:12:16;;;;;;;2.85;1.48;;;;;;;;;;5052864;28;20201;-66
2023/11/07 10:14:41;;;;;;;6.63;1.65;;;;;;;;;;5056580;28;20178;-66
2023/11/07 10:17:07;;;;;;;10.68;1.70;;;;;;;;;;5052221;28;20296;-65
2023/11/07 10:19:32;;;;;;;2.25;1.30;;;;;;;;;;5050621;28;20225;-66
2023/11/07 10:22:02;;;;;;;3.30;1.58;;;;;;;;;;5050084;28;20324;-66
2023/11/07 10:24:41;;;;;;;3.17;1.27;;;;;;;;;;5058293;28;20578;-66
2023/11/07 10:27:06;;;;;;;5.22;1.88;;;;;;;;;;5051342;28;20189;-67
2023/11/07 10:29:34;;;;;;;10.32;1.50;;;;;;;;;;5051809;28;20204;-66
2023/11/07 10:32:08;;;;;;;3.03;1.30;;;;;;;;;;5050895;28;20220;-66
2023/11/07 10:34:34;;;;;;;5.90;2.25;;;;;;;;;;5051832;28;20294;-66
2023/11/07 10:37:00;;;;;;;4.13;1.00;;;;;;;;;;5054871;28;20196;-67
2023/11/07 10:39:26;;;;;;;4.13;1.40;;;;;;;;;;5053689;28;20594;-67
2023/11/07 10:41:58;;;;;;;3.28;1.15;;;;;;;;;;5043005;28;20573;-66
2023/11/07 10:44:25;;;;;;;3.33;1.20;;;;;;;;;;5050810;28;20209;-66
2023/11/07 10:46:54;;;;;;;6.38;1.38;;;;;;;;;;5050555;28;20520;-66
2023/11/07 10:49:20;;;;;;;6.47;1.55;;;;;;;;;;5049281;28;20575;-66
2023/11/07 10:51:45;;;;;;;3.22;1.27;;;;;;;;;;5048667;28;20190;-66
2023/11/07 10:54:11;;;;;;;3.95;1.50;;;;;;;;;;5051789;28;20173;-67
2023/11/07 10:56:39;;;;;;;2.33;1.30;;;;;;;;;;5039908;28;20503;-66
2023/11/07 10:59:08;;;;;;;3.20;1.25;;;;;;;;;;5048387;28;20182;-65
2023/11/07 11:01:36;;;;;;;3.70;1.02;;;;;;;;;;5050569;28;20245;-67
2023/11/07 11:04:02;;;;;;;5.10;1.42;;;;;;;;;;5036712;28;20314;-66
2023/11/07 11:06:29;;;;;;;3.88;1.40;;;;;;;;;;5052345;28;20264;-66
2023/11/07 11:08:56;;;;;;;3.22;1.02;;;;;;;;;;5046766;28;20206;-66
2023/11/07 11:11:23;;;;;;;3.78;1.33;;;;;;;;;;5051240;28;20204;-67
2023/11/07 11:13:48;;;;;;;2.78;1.23;;;;;;;;;;5047917;28;20170;-66
2023/11/07 11:16:14;;;;;;;4.60;1.05;;;;;;;;;;5051322;28;20192;-66
2023/11/07 11:18:52;;;;;;;6.28;1.52;;;;;;;;;;5051116;28;20173;-68
2023/11/07 11:21:24;;;;;;;4.00;1.00;;;;;;;;;;5048915;28;20726;-67
2023/11/07 11:23:58;;;;;;;2.25;1.20;;;;;;;;;;5049227;28;20186;-67
2023/11/07 11:26:37;;;;;;;5.35;1.30;;;;;;;;;;5027732;28;20306;-68
2023/11/07 11:29:21;;;;;;;4.60;1.25;;;;;;;;;;5033409;28;20209;-67
2023/11/07 11:31:46;;;;;;;1.67;0.98;;;;;;;;;;5048244;28;20701;-68
2023/11/07 11:34:31;;;;;;;3.53;1.63;;;;;;;;;;5051416;28;20196;-67
2023/11/07 11:37:00;;;;;;;3.53;1.45;;;;;;;;;;5052230;28;20189;-65
2023/11/07 11:39:33;;;;;;;1.58;1.20;;;;;;;;;;5051401;28;20518;-66
2023/11/07 11:41:58;;;;;;;5.70;1.42;;;;;;;;;;5047294;28;20207;-66
2023/11/07 11:44:26;;;;;;;3.10;0.87;;;;;;;;;;5050169;28;20181;-65
2023/11/07 11:46:52;;;;;;;1.98;0.90;;;;;;;;;;5051324;28;20427;-66
2023/11/07 11:49:18;;;;;;;2.92;1.05;;;;;;;;;;5050134;28;20220;-66
2023/11/07 11:51:46;;;;;;;3.47;1.35;;;;;;;;;;5044325;28;20209;-65
2023/11/07 11:54:24;;;;;;;3.85;1.38;;;;;;;;;;5052815;28;20269;-67
2023/11/07 11:56:49;;;;;;;3.83;1.20;;;;;;;;;;5043768;28;20192;-66
2023/11/07 11:59:16;;;;;;;3.53;1.20;;;;;;;;;;5048605;28;20182;-66
2023/11/07 12:01:54;;;;;;;4.55;1.00;;;;;;;;;;5051166;28;20209;-66
2023/11/07 12:04:25;;;;;;;5.10;1.08;;;;;;;;;;5049585;28;20173;-66
2023/11/07 12:07:06;;;;;;;3.92;1.35;;;;;;;;;;5049885;28;20480;-66
2023/11/07 12:09:31;;;;;;;4.72;1.05;;;;;;;;;;5051204;28;20220;-66
2023/11/07 12:11:56;;;;;;;2.38;1.30;;;;;;;;;;5052624;28;20236;-67
2023/11/07 12:14:22;;;;;;;6.72;1.15;;;;;;;;;;5052542;28;20174;-66
2023/11/07 12:16:54;;;;;;;2.60;1.20;;;;;;;;;;5052920;28;20675;-66
2023/11/07 12:19:20;;;;;;;5.30;1.27;;;;;;;;;;5047804;28;20652;-66
2023/11/07 12:21:45;;;;;;;4.72;1.00;;;;;;;;;;5042900;28;20213;-66
2023/11/07 12:24:10;;;;;;;2.22;1.23;;;;;;;;;;5045656;28;20186;-66
2023/11/07 12:26:42;;;;;;;5.70;1.60;;;;;;;;;;5049568;28;20670;-66
2023/11/07 12:29:08;;;;;;;1.73;1.10;;;;;;;;;;5043180;28;20216;-66
2023/11/07 12:31:34;;;;;;;4.30;1.33;;;;;;;;;;5048995;28;20196;-66
2023/11/07 12:34:01;;;;;;;4.25;0.80;;;;;;;;;;5051196;28;20256;-66
2023/11/07 12:36:26;;;;;;;6.28;1.13;;;;;;;;;;5051808;28;20169;-66
2023/11/07 12:38:51;;;;;;;6.93;1.65;;;;;;;;;;5057090;28;20197;-66
2023/11/07 12:41:17;;;;;;;5.57;1.33;;;;;;;;;;5050148;28;20286;-66
2023/11/07 12:43:42;;;;;;;4.20;1.50;;;;;;;;;;5050283;28;20186;-66
2023/11/07 12:46:11;;;;;;;3.83;1.02;;;;;;;;;;5052707;28;20178;-66
2023/11/07 12:48:37;;;;;;;4.85;1.45;;;;;;;;;;5047287;28;20205;-66
2023/11/07 12:51:03;;;;;;;3.33;1.02;;;;;;;;;;5048834;28;20193;-66
2023/11/07 12:53:28;;;;;;;3.90;1.77;;;;;;;;;;5052629;28;20593;-67
2023/11/07 12:55:56;;;;;;;4.53;1.35;;;;;;;;;;5053665;28;20257;-66
2023/11/07 12:58:27;;;;;;;3.78;1.33;;;;;;;;;;5048496;28;20200;-66
2023/11/07 13:00:56;;;;;;;4.85;1.80;;;;;;;;;;5046670;28;20263;-67
2023/11/07 13:03:25;;;;;;;6.72;1.30;;;;;;;;;;5050455;28;20604;-67
2023/11/07 13:05:56;;;;;;;7.22;1.77;;;;;;;;;;5040821;28;20704;-67
2023/11/07 13:08:35;;;;;;;2.15;1.30;;;;;;;;;;5049889;28;20742;-66
2023/11/07 13:11:19;;;;;;;3.90;1.45;;;;;;;;;;5050673;28;20194;-67
2023/11/07 13:13:45;;;;;;;10.73;2.10;;;;;;;;;;5050787;28;20170;-67
2023/11/07 13:16:11;;;;;;;5.40;1.27;;;;;;;;;;5050310;28;20656;-67
2023/11/07 13:18:37;;;;;;;5.95;1.40;;;;;;;;;;5053455;28;20185;-67
2023/11/07 13:21:03;;;;;;;3.10;1.33;;;;;;;;;;5054280;28;20193;-67
2023/11/07 13:23:28;;;;;;;3.95;1.42;;;;;;;;;;5051285;28;20180;-67
2023/11/07 13:25:53;;;;;;;1.67;1.13;;;;;;;;;;5053193;28;20181;-67
2023/11/07 13:28:20;;;;;;;5.13;1.30;;;;;;;;;;5053119;28;20178;-67
2023/11/07 13:30:45;;;;;;;4.38;1.30;;;;;;;;;;5051649;28;20221;-67
2023/11/07 13:33:10;;;;;;;4.20;1.83;;;;;;;;;;5055955;28;20218;-66
2023/11/07 13:35:36;;;;;;;1.90;1.25;;;;;;;;;;5054783;28;20718;-66
2023/11/07 13:38:02;;;;;;;1.80;0.75;;;;;;;;;;5061724;28;20173;-66
2023/11/07 13:40:27;;;;;;;4.30;1.20;;;;;;;;;;5050677;28;20668;-66
2023/11/07 13:42:53;;;;;;;4.25;1.10;;;;;;;;;;5051210;28;20188;-66
2023/11/07 13:45:19;;;;;;;3.95;1.58;;;;;;;;;;5053739;28;20207;-66
2023/11/07 13:47:44;;;;;;;7.15;1.70;;;;;;;;;;5051449;28;20177;-66
2023/11/07 13:50:10;;;;;;;3.55;1.23;;;;;;;;;;5032553;28;20688;-66
2023/11/07 13:52:35;;;;;;;4.20;0.90;;;;;;;;;;5051355;28;20180;-66
2023/11/07 13:55:00;;;;;;;6.05;1.27;;;;;;;;;;5053585;28;20593;-66
2023/11/07 13:57:26;;;;;;;1.00;0.70;;;;;;;;;;5056624;28;20597;-66
2023/11/07 13:59:51;;;;;;;4.93;1.55;;;;;;;;;;5052681;28;20602;-66
2023/11/07 14:02:16;;;;;;;4.30;1.52;;;;;;;;;;5053519;28;20300;-66
2023/11/07 14:04:41;;;;;;;2.10;0.90;;;;;;;;;;5052177;28;20196;-66
2023/11/07 14:07:07;;;;;;;3.60;1.10;;;;;;;;;;5051365;28;20181;-66
2023/11/07 14:09:32;;;;;;;5.75;1.35;;;;;;;;;;5052874;28;20197;-66
2023/11/07 14:11:58;;;;;;;6.88;1.58;;;;;;;;;;5054529;28;20243;-65
2023/11/07 14:14:23;;;;;;;3.33;1.33;;;;;;;;;;5033559;28;20181;-65
2023/11/07 14:16:49;;;;;;;5.03;1.15;;;;;;;;;;5053508;28;20216;-66
2023/11/07 14:19:14;;;;;;;2.08;1.08;;;;;;;;;;5056743;28;20173;-66
2023/11/07 14:21:41;;;;;;;2.95;0.93;;;;;;;;;;5052681;28;20202;-65
2023/11/07 14:24:07;;;;;;;1.58;0.80;;;;;;;;;;5039622;28;20603;-66
2023/11/07 14:26:36;;;;;;;2.75;1.10;;;;;;;;;;5045382;28;20687;-66
2023/11/07 14:29:02;;;;;;;4.60;1.10;;;;;;;;;;5051621;28;20224;-67
2023/11/07 14:31:28;;;;;;;1.50;0.85;;;;;;;;;;5051929;28;20242;-66
2023/11/07 14:33:54;;;;;;;4.88;0.90;;;;;;;;;;5042164;28;20260;-67
2023/11/07 14:36:19;;;;;;;2.95;0.75;;;;;;;;;;5051763;28;20657;-66